sensor_id;sensor_type;location;lat;lon;timestamp;pressure;altitude;pressure_sealevel;temperature;humidity
76108;BME280;64834;52.516;10.528;2023-07-31T00:02:17;100380.72;;;15.50;100.00
76108;BME280;64834;52.516;10.528;2023-07-31T00:04:42;100384.53;;;15.59;100.00
76108;BME280;64834;52.516;10.528;2023-07-31T00:07:07;100385.38;;;15.58;100.00
76108;BME280;64834;52.516;10.528;2023-07-31T00:09:33;100386.19;;;15.56;100.00
76108;BME280;64834;52.516;10.528;2023-07-31T00:11:59;100372.00;;;15.52;100.00
76108;BME280;64834;52.516;10.528;2023-07-31T00:14:24;100375.41;;;15.48;100.00
76108;BME280;64834;52.516;10.528;2023-07-31T00:16:50;100385.09;;;15.49;100.00
76108;BME280;64834;52.516;10.528;2023-07-31T00:19:15;100384.44;;;15.56;100.00
76108;BME280;64834;52.516;10.528;2023-07-31T00:21:40;100366.59;;;15.48;100.00
76108;BME280;64834;52.516;10.528;2023-07-31T00:24:06;100374.31;;;15.42;100.00
76108;BME280;64834;52.516;10.528;2023-07-31T00:26:31;100362.69;;;15.35;100.00
76108;BME280;64834;52.516;10.528;2023-07-31T00:28:56;100364.47;;;15.36;100.00
76108;BME280;64834;52.516;10.528;2023-07-31T00:31:22;100358.50;;;15.42;100.00
76108;BME280;64834;52.516;10.528;2023-07-31T00:33:47;100359.22;;;15.36;100.00
76108;BME280;64834;52.516;10.528;2023-07-31T00:36:12;100359.22;;;15.36;100.00
76108;BME280;64834;52.516;10.528;2023-07-31T00:38:38;100360.38;;;15.46;100.00
76108;BME280;64834;52.516;10.528;2023-07-31T00:41:03;100345.22;;;15.38;100.00
76108;BME280;64834;52.516;10.528;2023-07-31T00:43:28;100339.22;;;15.44;100.00
76108;BME280;64834;52.516;10.528;2023-07-31T00:45:54;100333.00;;;15.41;100.00
76108;BME280;64834;52.516;10.528;2023-07-31T00:48:19;100339.03;;;15.38;100.00
76108;BME280;64834;52.516;10.528;2023-07-31T00:50:45;100324.31;;;15.45;100.00
76108;BME280;64834;52.516;10.528;2023-07-31T00:53:10;100322.56;;;15.45;100.00
76108;BME280;64834;52.516;10.528;2023-07-31T00:55:35;100316.31;;;15.42;100.00
76108;BME280;64834;52.516;10.528;2023-07-31T00:58:01;100315.50;;;15.44;100.00
76108;BME280;64834;52.516;10.528;2023-07-31T01:00:26;100303.97;;;15.41;100.00
76108;BME280;64834;52.516;10.528;2023-07-31T01:02:52;100307.72;;;15.49;100.00
76108;BME280;64834;52.516;10.528;2023-07-31T01:05:25;100296.91;;;15.39;100.00
76108;BME280;64834;52.516;10.528;2023-07-31T01:08:28;100300.50;;;15.42;100.00
76108;BME280;64834;52.516;10.528;2023-07-31T01:11:00;100291.69;;;15.41;100.00
76108;BME280;64834;52.516;10.528;2023-07-31T01:13:28;100305.13;;;15.50;100.00
76108;BME280;64834;52.516;10.528;2023-07-31T01:15:53;100293.63;;;15.47;100.00
76108;BME280;64834;52.516;10.528;2023-07-31T01:18:19;100297.00;;;15.43;100.00
76108;BME280;64834;52.516;10.528;2023-07-31T01:20:49;100295.22;;;15.42;100.00
76108;BME280;64834;52.516;10.528;2023-07-31T01:26:12;100288.97;;;15.39;100.00
76108;BME280;64834;52.516;10.528;2023-07-31T01:29:01;100293.50;;;15.44;100.00
76108;BME280;64834;52.516;10.528;2023-07-31T01:31:30;100285.53;;;15.41;100.00
76108;BME280;64834;52.516;10.528;2023-07-31T01:33:56;100283.06;;;15.47;100.00
76108;BME280;64834;52.516;10.528;2023-07-31T01:36:23;100278.72;;;15.49;100.00
76108;BME280;64834;52.516;10.528;2023-07-31T01:38:48;100280.47;;;15.48;100.00
76108;BME280;64834;52.516;10.528;2023-07-31T01:41:17;100278.91;;;15.55;100.00
76108;BME280;64834;52.516;10.528;2023-07-31T01:43:42;100280.72;;;15.57;100.00
76108;BME280;64834;52.516;10.528;2023-07-31T01:46:08;100271.91;;;15.57;100.00
76108;BME280;64834;52.516;10.528;2023-07-31T01:48:33;100277.16;;;15.55;100.00
76108;BME280;64834;52.516;10.528;2023-07-31T01:51:01;100277.16;;;15.55;100.00
76108;BME280;64834;52.516;10.528;2023-07-31T01:53:27;100277.97;;;15.53;100.00
76108;BME280;64834;52.516;10.528;2023-07-31T01:55:52;100269.22;;;15.54;100.00
76108;BME280;64834;52.516;10.528;2023-07-31T01:58:17;100262.25;;;15.57;100.00
76108;BME280;64834;52.516;10.528;2023-07-31T02:00:43;100256.94;;;15.56;100.00
76108;BME280;64834;52.516;10.528;2023-07-31T02:03:08;100257.00;;;15.57;100.00
76108;BME280;64834;52.516;10.528;2023-07-31T02:05:33;100256.91;;;15.54;100.00
76108;BME280;64834;52.516;10.528;2023-07-31T02:07:59;100243.91;;;15.60;100.00
76108;BME280;64834;52.516;10.528;2023-07-31T02:10:24;100238.91;;;15.70;100.00
76108;BME280;64834;52.516;10.528;2023-07-31T02:12:49;100221.22;;;15.66;100.00
76108;BME280;64834;52.516;10.528;2023-07-31T02:15:15;100218.81;;;15.75;100.00
76108;BME280;64834;52.516;10.528;2023-07-31T02:17:40;100217.69;;;15.65;100.00
76108;BME280;64834;52.516;10.528;2023-07-31T02:20:06;100221.28;;;15.69;100.00
76108;BME280;64834;52.516;10.528;2023-07-31T02:22:31;100221.84;;;15.58;100.00
76108;BME280;64834;52.516;10.528;2023-07-31T02:24:57;100212.13;;;15.56;100.00
76108;BME280;64834;52.516;10.528;2023-07-31T02:27:22;100212.03;;;15.53;100.00
76108;BME280;64834;52.516;10.528;2023-07-31T02:29:52;100213.88;;;15.55;100.00
76108;BME280;64834;52.516;10.528;2023-07-31T02:32:17;100203.38;;;15.58;100.00
76108;BME280;64834;52.516;10.528;2023-07-31T02:34:42;100200.63;;;15.54;100.00
76108;BME280;64834;52.516;10.528;2023-07-31T02:37:08;100205.91;;;15.54;100.00
76108;BME280;64834;52.516;10.528;2023-07-31T02:39:33;100216.50;;;15.55;100.00
76108;BME280;64834;52.516;10.528;2023-07-31T02:41:59;100216.38;;;15.51;100.00
76108;BME280;64834;52.516;10.528;2023-07-31T02:44:25;100211.94;;;15.50;100.00
76108;BME280;64834;52.516;10.528;2023-07-31T02:46:51;100212.97;;;15.55;100.00
76108;BME280;64834;52.516;10.528;2023-07-31T02:49:16;100214.75;;;15.56;100.00
76108;BME280;64834;52.516;10.528;2023-07-31T02:51:41;100214.75;;;15.56;100.00
76108;BME280;64834;52.516;10.528;2023-07-31T02:54:07;100208.44;;;15.51;100.00
76108;BME280;64834;52.516;10.528;2023-07-31T02:56:32;100207.66;;;15.53;100.00
76108;BME280;64834;52.516;10.528;2023-07-31T02:58:57;100203.19;;;15.51;100.00
76108;BME280;64834;52.516;10.528;2023-07-31T03:01:23;100202.31;;;15.52;100.00
76108;BME280;64834;52.516;10.528;2023-07-31T03:03:48;100204.03;;;15.50;100.00
76108;BME280;64834;52.516;10.528;2023-07-31T03:06:14;100200.56;;;15.52;100.00
76108;BME280;64834;52.516;10.528;2023-07-31T03:08:39;100199.75;;;15.53;100.00
76108;BME280;64834;52.516;10.528;2023-07-31T03:11:04;100204.13;;;15.53;100.00
76108;BME280;64834;52.516;10.528;2023-07-31T03:13:30;100204.91;;;15.50;100.00
76108;BME280;64834;52.516;10.528;2023-07-31T03:15:55;100202.50;;;15.58;100.00
76108;BME280;64834;52.516;10.528;2023-07-31T03:18:20;100202.38;;;15.53;100.00
76108;BME280;64834;52.516;10.528;2023-07-31T03:20:46;100201.41;;;15.50;100.00
76108;BME280;64834;52.516;10.528;2023-07-31T03:23:11;100200.03;;;15.62;100.00
76108;BME280;64834;52.516;10.528;2023-07-31T03:25:37;100199.81;;;15.56;100.00
76108;BME280;64834;52.516;10.528;2023-07-31T03:28:02;100204.06;;;15.51;100.00
76108;BME280;64834;52.516;10.528;2023-07-31T03:30:28;100200.72;;;15.57;100.00
76108;BME280;64834;52.516;10.528;2023-07-31T03:32:53;100201.59;;;15.57;100.00
76108;BME280;64834;52.516;10.528;2023-07-31T03:35:19;100197.19;;;15.56;100.00
76108;BME280;64834;52.516;10.528;2023-07-31T03:37:44;100203.28;;;15.54;100.00
76108;BME280;64834;52.516;10.528;2023-07-31T03:40:10;100210.16;;;15.49;100.00
76108;BME280;64834;52.516;10.528;2023-07-31T03:42:35;100201.53;;;15.54;100.00
76108;BME280;64834;52.516;10.528;2023-07-31T03:45:01;100208.38;;;15.48;100.00
76108;BME280;64834;52.516;10.528;2023-07-31T03:47:26;100206.59;;;15.47;100.00
76108;BME280;64834;52.516;10.528;2023-07-31T03:49:52;100212.75;;;15.47;100.00
76108;BME280;64834;52.516;10.528;2023-07-31T03:52:17;100204.75;;;15.44;100.00
76108;BME280;64834;52.516;10.528;2023-07-31T03:54:42;100213.56;;;15.45;100.00
76108;BME280;64834;52.516;10.528;2023-07-31T03:57:10;100209.84;;;15.38;100.00
76108;BME280;64834;52.516;10.528;2023-07-31T03:59:35;100201.88;;;15.35;100.00
76108;BME280;64834;52.516;10.528;2023-07-31T04:02:00;100200.34;;;15.43;100.00
76108;BME280;64834;52.516;10.528;2023-07-31T04:04:26;100205.81;;;15.51;100.00
76108;BME280;64834;52.516;10.528;2023-07-31T04:06:51;100201.31;;;15.47;100.00
76108;BME280;64834;52.516;10.528;2023-07-31T04:09:17;100205.44;;;15.37;100.00
76108;BME280;64834;52.516;10.528;2023-07-31T04:11:42;100202.03;;;15.41;100.00
76108;BME280;64834;52.516;10.528;2023-07-31T04:14:07;100200.19;;;15.38;100.00
76108;BME280;64834;52.516;10.528;2023-07-31T04:16:32;100201.22;;;15.44;100.00
76108;BME280;64834;52.516;10.528;2023-07-31T04:18:58;100199.50;;;15.46;100.00
76108;BME280;64834;52.516;10.528;2023-07-31T04:21:24;100195.03;;;15.42;100.00
76108;BME280;64834;52.516;10.528;2023-07-31T04:23:49;100187.88;;;15.37;100.00
76108;BME280;64834;52.516;10.528;2023-07-31T04:26:14;100188.03;;;15.44;100.00
76108;BME280;64834;52.516;10.528;2023-07-31T04:28:40;100180.63;;;15.30;100.00
76108;BME280;64834;52.516;10.528;2023-07-31T04:31:05;100184.34;;;15.37;100.00
76108;BME280;64834;52.516;10.528;2023-07-31T04:33:30;100183.75;;;15.47;100.00
76108;BME280;64834;52.516;10.528;2023-07-31T04:35:56;100179.38;;;15.48;100.00
76108;BME280;64834;52.516;10.528;2023-07-31T04:38:22;100177.59;;;15.47;100.00
76108;BME280;64834;52.516;10.528;2023-07-31T04:40:48;100176.53;;;15.40;100.00
76108;BME280;64834;52.516;10.528;2023-07-31T04:43:14;100177.66;;;15.50;100.00
76108;BME280;64834;52.516;10.528;2023-07-31T04:45:39;100175.78;;;15.46;100.00
76108;BME280;64834;52.516;10.528;2023-07-31T04:48:04;100178.59;;;15.52;100.00
76108;BME280;64834;52.516;10.528;2023-07-31T04:50:30;100181.22;;;15.52;100.00
76108;BME280;64834;52.516;10.528;2023-07-31T04:52:56;100178.53;;;15.49;100.00
76108;BME280;64834;52.516;10.528;2023-07-31T04:55:22;100173.44;;;15.56;100.00
76108;BME280;64834;52.516;10.528;2023-07-31T04:57:47;100175.16;;;15.54;100.00
76108;BME280;64834;52.516;10.528;2023-07-31T05:00:12;100171.69;;;15.57;100.00
76108;BME280;64834;52.516;10.528;2023-07-31T05:02:38;100176.22;;;15.61;100.00
76108;BME280;64834;52.516;10.528;2023-07-31T05:05:03;100172.88;;;15.67;100.00
76108;BME280;64834;52.516;10.528;2023-07-31T05:07:29;100176.47;;;15.70;100.00
76108;BME280;64834;52.516;10.528;2023-07-31T05:09:54;100178.03;;;15.62;100.00
76108;BME280;64834;52.516;10.528;2023-07-31T05:12:19;100172.94;;;15.70;100.00
76108;BME280;64834;52.516;10.528;2023-07-31T05:14:45;100168.53;;;15.69;100.00
76108;BME280;64834;52.516;10.528;2023-07-31T05:17:10;100158.00;;;15.70;100.00
76108;BME280;64834;52.516;10.528;2023-07-31T05:19:35;100159.75;;;15.70;100.00
76108;BME280;64834;52.516;10.528;2023-07-31T05:22:01;100165.13;;;15.73;100.00
76108;BME280;64834;52.516;10.528;2023-07-31T05:24:26;100160.50;;;15.64;100.00
76108;BME280;64834;52.516;10.528;2023-07-31T05:26:51;100154.19;;;15.59;100.00
76108;BME280;64834;52.516;10.528;2023-07-31T05:29:17;100146.38;;;15.62;100.00
76108;BME280;64834;52.516;10.528;2023-07-31T05:31:42;100155.13;;;15.61;100.00
76108;BME280;64834;52.516;10.528;2023-07-31T05:34:07;100158.97;;;15.72;100.00
76108;BME280;64834;52.516;10.528;2023-07-31T05:36:33;100149.84;;;15.61;100.00
76108;BME280;64834;52.516;10.528;2023-07-31T05:38:58;100160.50;;;15.64;100.00
76108;BME280;64834;52.516;10.528;2023-07-31T05:41:23;100148.06;;;15.60;100.00
76108;BME280;64834;52.516;10.528;2023-07-31T05:43:49;100150.84;;;15.64;100.00
76108;BME280;64834;52.516;10.528;2023-07-31T05:46:14;100153.59;;;15.69;100.00
76108;BME280;64834;52.516;10.528;2023-07-31T05:48:39;100152.13;;;15.80;100.00
76108;BME280;64834;52.516;10.528;2023-07-31T05:51:05;100153.03;;;15.81;100.00
76108;BME280;64834;52.516;10.528;2023-07-31T05:53:30;100143.47;;;15.84;100.00
76108;BME280;64834;52.516;10.528;2023-07-31T05:55:56;100141.50;;;15.77;100.00
76108;BME280;64834;52.516;10.528;2023-07-31T05:58:21;100135.41;;;15.80;100.00
76108;BME280;64834;52.516;10.528;2023-07-31T06:00:46;100142.41;;;15.78;100.00
76108;BME280;64834;52.516;10.528;2023-07-31T06:03:12;100140.59;;;15.77;100.00
76108;BME280;64834;52.516;10.528;2023-07-31T06:05:37;100134.50;;;15.78;100.00
76108;BME280;64834;52.516;10.528;2023-07-31T06:08:02;100134.38;;;15.73;100.00
76108;BME280;64834;52.516;10.528;2023-07-31T06:10:28;100128.13;;;15.71;100.00
76108;BME280;64834;52.516;10.528;2023-07-31T06:12:53;100134.09;;;15.62;100.00
76108;BME280;64834;52.516;10.528;2023-07-31T06:15:19;100130.50;;;15.60;100.00
76108;BME280;64834;52.516;10.528;2023-07-31T06:17:44;100128.66;;;15.58;100.00
76108;BME280;64834;52.516;10.528;2023-07-31T06:20:10;100124.19;;;15.55;100.00
76108;BME280;64834;52.516;10.528;2023-07-31T06:22:35;100122.75;;;15.65;100.00
76108;BME280;64834;52.516;10.528;2023-07-31T06:25:01;100120.09;;;15.65;100.00
76108;BME280;64834;52.516;10.528;2023-07-31T06:27:26;100120.94;;;15.64;100.00
76108;BME280;64834;52.516;10.528;2023-07-31T06:29:51;100116.63;;;15.68;100.00
76108;BME280;64834;52.516;10.528;2023-07-31T06:32:17;100124.75;;;15.75;100.00
76108;BME280;64834;52.516;10.528;2023-07-31T06:34:42;100114.06;;;15.71;100.00
76108;BME280;64834;52.516;10.528;2023-07-31T06:37:07;100116.66;;;15.69;100.00
76108;BME280;64834;52.516;10.528;2023-07-31T06:39:33;100110.50;;;15.69;100.00
76108;BME280;64834;52.516;10.528;2023-07-31T06:41:58;100113.41;;;15.79;100.00
76108;BME280;64834;52.516;10.528;2023-07-31T06:44:23;100112.09;;;15.62;100.00
76108;BME280;64834;52.516;10.528;2023-07-31T06:46:49;100112.25;;;15.68;100.00
76108;BME280;64834;52.516;10.528;2023-07-31T06:49:14;100109.69;;;15.71;100.00
76108;BME280;64834;52.516;10.528;2023-07-31T06:51:42;100119.50;;;15.77;100.00
76108;BME280;64834;52.516;10.528;2023-07-31T06:54:09;100102.94;;;15.82;100.00
76108;BME280;64834;52.516;10.528;2023-07-31T06:56:34;100100.31;;;15.84;100.00
76108;BME280;64834;52.516;10.528;2023-07-31T06:59:00;100102.22;;;15.89;100.00
76108;BME280;64834;52.516;10.528;2023-07-31T07:01:25;100096.13;;;15.90;100.00
76108;BME280;64834;52.516;10.528;2023-07-31T07:03:51;100090.84;;;15.90;100.00
76108;BME280;64834;52.516;10.528;2023-07-31T07:06:19;100093.47;;;15.90;100.00
76108;BME280;64834;52.516;10.528;2023-07-31T07:08:44;100096.16;;;15.92;100.00
76108;BME280;64834;52.516;10.528;2023-07-31T07:11:10;100088.22;;;15.90;100.00
76108;BME280;64834;52.516;10.528;2023-07-31T07:13:35;100085.47;;;15.87;100.00
76108;BME280;64834;52.516;10.528;2023-07-31T07:16:01;100086.25;;;15.83;100.00
76108;BME280;64834;52.516;10.528;2023-07-31T07:18:26;100086.47;;;15.93;100.00
76108;BME280;64834;52.516;10.528;2023-07-31T07:20:53;100089.03;;;15.89;100.00
76108;BME280;64834;52.516;10.528;2023-07-31T07:23:19;100089.13;;;15.93;100.00
76108;BME280;64834;52.516;10.528;2023-07-31T07:25:45;100095.34;;;15.96;100.00
76108;BME280;64834;52.516;10.528;2023-07-31T07:28:11;100099.09;;;16.04;100.00
76108;BME280;64834;52.516;10.528;2023-07-31T07:30:36;100095.50;;;16.02;100.00
76108;BME280;64834;52.516;10.528;2023-07-31T07:33:02;100095.59;;;16.05;100.00
76108;BME280;64834;52.516;10.528;2023-07-31T07:35:27;100092.84;;;16.02;100.00
76108;BME280;64834;52.516;10.528;2023-07-31T07:37:53;100093.81;;;16.04;100.00
76108;BME280;64834;52.516;10.528;2023-07-31T07:40:19;100101.75;;;16.06;100.00
76108;BME280;64834;52.516;10.528;2023-07-31T07:42:45;100090.31;;;16.05;100.00
76108;BME280;64834;52.516;10.528;2023-07-31T07:45:10;100099.03;;;16.03;100.00
76108;BME280;64834;52.516;10.528;2023-07-31T07:47:35;100087.53;;;16.01;100.00
76108;BME280;64834;52.516;10.528;2023-07-31T07:50:00;100080.69;;;16.09;100.00
76108;BME280;64834;52.516;10.528;2023-07-31T07:52:26;100085.38;;;16.21;100.00
76108;BME280;64834;52.516;10.528;2023-07-31T07:54:51;100097.78;;;16.25;100.00
76108;BME280;64834;52.516;10.528;2023-07-31T07:57:17;100097.84;;;16.28;100.00
76108;BME280;64834;52.516;10.528;2023-07-31T07:59:42;100101.31;;;16.25;100.00
76108;BME280;64834;52.516;10.528;2023-07-31T08:02:08;100102.91;;;16.17;100.00
76108;BME280;64834;52.516;10.528;2023-07-31T08:04:33;100071.38;;;16.23;100.00
76108;BME280;64834;52.516;10.528;2023-07-31T08:06:58;100075.19;;;16.36;100.00
76108;BME280;64834;52.516;10.528;2023-07-31T08:09:24;100084.91;;;16.78;100.00
76108;BME280;64834;52.516;10.528;2023-07-31T08:11:49;100092.94;;;16.82;100.00
76108;BME280;64834;52.516;10.528;2023-07-31T08:14:14;100091.19;;;16.84;100.00
76108;BME280;64834;52.516;10.528;2023-07-31T08:16:40;100096.66;;;16.92;100.00
76108;BME280;64834;52.516;10.528;2023-07-31T08:19:05;100094.03;;;16.93;100.00
76108;BME280;64834;52.516;10.528;2023-07-31T08:21:31;100095.19;;;17.08;100.00
76108;BME280;64834;52.516;10.528;2023-07-31T08:23:56;100097.22;;;17.21;100.00
76108;BME280;64834;52.516;10.528;2023-07-31T08:26:22;100095.19;;;17.08;100.00
76108;BME280;64834;52.516;10.528;2023-07-31T08:28:47;100087.59;;;17.24;100.00
76108;BME280;64834;52.516;10.528;2023-07-31T08:31:12;100091.28;;;17.34;100.00
76108;BME280;64834;52.516;10.528;2023-07-31T08:33:39;100088.94;;;17.49;100.00
76108;BME280;64834;52.516;10.528;2023-07-31T08:36:05;100078.28;;;17.45;100.00
76108;BME280;64834;52.516;10.528;2023-07-31T08:38:30;100088.09;;;17.52;100.00
76108;BME280;64834;52.516;10.528;2023-07-31T08:40:59;100095.91;;;17.46;100.00
76108;BME280;64834;52.516;10.528;2023-07-31T08:43:28;100099.50;;;17.48;100.00
76108;BME280;64834;52.516;10.528;2023-07-31T08:45:54;100093.34;;;17.49;100.00
76108;BME280;64834;52.516;10.528;2023-07-31T08:48:21;100096.75;;;17.42;99.76
76108;BME280;64834;52.516;10.528;2023-07-31T08:50:47;100100.63;;;17.62;99.52
76108;BME280;64834;52.516;10.528;2023-07-31T08:53:12;100093.59;;;17.64;98.03
76108;BME280;64834;52.516;10.528;2023-07-31T08:55:38;100092.97;;;17.76;98.60
76108;BME280;64834;52.516;10.528;2023-07-31T08:58:04;100092.97;;;17.76;99.44
76108;BME280;64834;52.516;10.528;2023-07-31T09:00:32;100090.28;;;17.73;98.52
76108;BME280;64834;52.516;10.528;2023-07-31T09:03:02;100083.53;;;17.42;99.57
76108;BME280;64834;52.516;10.528;2023-07-31T09:05:29;100083.47;;;17.40;97.77
76108;BME280;64834;52.516;10.528;2023-07-31T09:07:55;100084.66;;;17.56;97.69
76108;BME280;64834;52.516;10.528;2023-07-31T09:10:21;100070.16;;;17.84;95.26
76108;BME280;64834;52.516;10.528;2023-07-31T09:12:47;100070.13;;;18.40;93.85
76108;BME280;64834;52.516;10.528;2023-07-31T09:15:13;100073.09;;;18.66;92.52
76108;BME280;64834;52.516;10.528;2023-07-31T09:17:39;100070.63;;;18.77;90.17
76108;BME280;64834;52.516;10.528;2023-07-31T09:22:39;100060.03;;;18.77;93.06
76108;BME280;64834;52.516;10.528;2023-07-31T09:27:46;100057.66;;;18.33;92.29
76108;BME280;64834;52.516;10.528;2023-07-31T09:30:12;100056.31;;;18.64;90.40
76108;BME280;64834;52.516;10.528;2023-07-31T09:32:37;100046.03;;;18.90;88.66
76108;BME280;64834;52.516;10.528;2023-07-31T09:35:22;100047.31;;;19.26;88.73
76108;BME280;64834;52.516;10.528;2023-07-31T09:37:57;100041.06;;;19.18;88.52
76108;BME280;64834;52.516;10.528;2023-07-31T09:40:27;100053.25;;;19.03;86.07
76108;BME280;64834;52.516;10.528;2023-07-31T09:42:58;100045.00;;;18.76;86.95
76108;BME280;64834;52.516;10.528;2023-07-31T09:45:24;100049.50;;;18.81;86.95
76108;BME280;64834;52.516;10.528;2023-07-31T09:47:49;100034.84;;;18.44;87.60
76108;BME280;64834;52.516;10.528;2023-07-31T09:50:14;100036.84;;;18.62;89.74
76108;BME280;64834;52.516;10.528;2023-07-31T09:52:41;100043.88;;;18.58;89.81
76108;BME280;64834;52.516;10.528;2023-07-31T09:55:07;100035.75;;;18.45;90.25
76108;BME280;64834;52.516;10.528;2023-07-31T09:57:32;100043.66;;;18.42;89.16
76108;BME280;64834;52.516;10.528;2023-07-31T09:59:59;100040.09;;;18.40;89.36
76108;BME280;64834;52.516;10.528;2023-07-31T10:02:26;100044.31;;;18.25;90.72
76108;BME280;64834;52.516;10.528;2023-07-31T10:04:55;100045.44;;;18.43;90.82
76108;BME280;64834;52.516;10.528;2023-07-31T10:07:25;100034.88;;;18.47;90.84
76108;BME280;64834;52.516;10.528;2023-07-31T10:09:54;100045.44;;;18.43;90.17
76108;BME280;64834;52.516;10.528;2023-07-31T10:12:22;100038.38;;;18.43;90.88
76108;BME280;64834;52.516;10.528;2023-07-31T10:14:50;100045.28;;;18.33;90.90
76108;BME280;64834;52.516;10.528;2023-07-31T10:17:17;100034.69;;;18.33;90.76
76108;BME280;64834;52.516;10.528;2023-07-31T10:19:43;100042.63;;;18.32;91.85
76108;BME280;64834;52.516;10.528;2023-07-31T10:22:09;100041.56;;;18.19;91.56
76108;BME280;64834;52.516;10.528;2023-07-31T10:24:36;100045.81;;;18.06;92.58
76108;BME280;64834;52.516;10.528;2023-07-31T10:27:02;100047.38;;;17.95;96.08
76108;BME280;64834;52.516;10.528;2023-07-31T10:29:28;100048.19;;;17.91;96.48
76108;BME280;64834;52.516;10.528;2023-07-31T10:31:56;100043.53;;;17.75;97.05
76108;BME280;64834;52.516;10.528;2023-07-31T10:34:22;100047.75;;;17.65;98.47
76108;BME280;64834;52.516;10.528;2023-07-31T10:36:47;100045.53;;;17.88;99.97
76108;BME280;64834;52.516;10.528;2023-07-31T10:39:34;100034.91;;;17.85;98.74
76108;BME280;64834;52.516;10.528;2023-07-31T10:42:18;100027.09;;;17.96;97.88
76108;BME280;64834;52.516;10.528;2023-07-31T10:44:44;100021.78;;;17.94;97.27
76108;BME280;64834;52.516;10.528;2023-07-31T10:47:20;100023.66;;;18.01;97.06
76108;BME280;64834;52.516;10.528;2023-07-31T10:49:46;100015.16;;;18.24;96.64
76108;BME280;64834;52.516;10.528;2023-07-31T10:52:12;100007.22;;;18.24;95.44
76108;BME280;64834;52.516;10.528;2023-07-31T10:54:38;100011.66;;;18.26;95.85
76108;BME280;64834;52.516;10.528;2023-07-31T10:57:21;100010.03;;;18.36;96.23
76108;BME280;64834;52.516;10.528;2023-07-31T10:59:47;100004.53;;;18.22;95.82
76108;BME280;64834;52.516;10.528;2023-07-31T11:02:26;99993.94;;;18.22;96.20
76108;BME280;64834;52.516;10.528;2023-07-31T11:05:08;100000.88;;;18.11;96.51
76108;BME280;64834;52.516;10.528;2023-07-31T11:07:47;99999.03;;;18.05;96.22
76108;BME280;64834;52.516;10.528;2023-07-31T11:10:16;99992.22;;;18.26;95.95
76108;BME280;64834;52.516;10.528;2023-07-31T11:12:41;99996.09;;;18.54;96.58
76108;BME280;64834;52.516;10.528;2023-07-31T11:15:07;99987.50;;;18.67;95.74
76108;BME280;64834;52.516;10.528;2023-07-31T11:17:33;99988.53;;;18.81;93.64
76108;BME280;64834;52.516;10.528;2023-07-31T11:19:58;99976.09;;;18.79;93.38
76108;BME280;64834;52.516;10.528;2023-07-31T11:22:23;99979.88;;;19.02;92.25
76108;BME280;64834;52.516;10.528;2023-07-31T11:24:49;99968.34;;;18.94;91.08
76108;BME280;64834;52.516;10.528;2023-07-31T11:27:14;99966.69;;;19.10;89.94
76108;BME280;64834;52.516;10.528;2023-07-31T11:29:39;99949.97;;;19.16;88.19
76108;BME280;64834;52.516;10.528;2023-07-31T11:32:15;99957.97;;;19.19;89.01
76108;BME280;64834;52.516;10.528;2023-07-31T11:34:54;99959.69;;;19.17;88.69
76108;BME280;64834;52.516;10.528;2023-07-31T11:37:20;99945.63;;;19.25;87.97
76108;BME280;64834;52.516;10.528;2023-07-31T11:40:05;99941.38;;;19.46;87.70
76108;BME280;64834;52.516;10.528;2023-07-31T11:42:31;99947.56;;;19.48;87.03
76108;BME280;64834;52.516;10.528;2023-07-31T11:44:56;99937.81;;;19.44;86.41
76108;BME280;64834;52.516;10.528;2023-07-31T11:47:21;99939.41;;;19.20;86.57
76108;BME280;64834;52.516;10.528;2023-07-31T11:49:47;99937.47;;;19.02;85.43
76108;BME280;64834;52.516;10.528;2023-07-31T11:52:14;99932.38;;;19.27;86.15
76108;BME280;64834;52.516;10.528;2023-07-31T11:54:40;99931.53;;;19.31;84.55
76108;BME280;64834;52.516;10.528;2023-07-31T11:57:06;99932.38;;;19.28;84.29
76108;BME280;64834;52.516;10.528;2023-07-31T11:59:32;99935.03;;;19.27;84.80
76108;BME280;64834;52.516;10.528;2023-07-31T12:01:58;99932.47;;;19.37;84.26
76108;BME280;64834;52.516;10.528;2023-07-31T12:04:23;99925.34;;;19.30;83.01
76108;BME280;64834;52.516;10.528;2023-07-31T12:06:49;99917.41;;;19.35;84.35
76108;BME280;64834;52.516;10.528;2023-07-31T12:09:15;99921.84;;;19.36;83.64
76108;BME280;64834;52.516;10.528;2023-07-31T12:11:47;99923.63;;;19.37;84.07
76108;BME280;64834;52.516;10.528;2023-07-31T12:14:25;99931.44;;;19.22;83.82
76108;BME280;64834;52.516;10.528;2023-07-31T12:16:55;99929.63;;;19.16;82.83
76108;BME280;64834;52.516;10.528;2023-07-31T12:19:21;99914.59;;;19.13;82.38
76108;BME280;64834;52.516;10.528;2023-07-31T12:21:47;99921.66;;;19.16;83.08
76108;BME280;64834;52.516;10.528;2023-07-31T12:24:12;99917.25;;;19.15;83.22
76108;BME280;64834;52.516;10.528;2023-07-31T12:26:37;99911.06;;;19.14;82.09
76108;BME280;64834;52.516;10.528;2023-07-31T12:29:06;99919.09;;;19.24;83.06
76108;BME280;64834;52.516;10.528;2023-07-31T12:31:33;99929.63;;;19.14;83.00
76108;BME280;64834;52.516;10.528;2023-07-31T12:33:59;99922.59;;;19.20;82.71
76108;BME280;64834;52.516;10.528;2023-07-31T12:36:24;99916.31;;;19.07;85.63
76108;BME280;64834;52.516;10.528;2023-07-31T12:38:50;99908.25;;;18.96;87.00
76108;BME280;64834;52.516;10.528;2023-07-31T12:41:16;99923.19;;;18.88;88.00